Royal Center, Indiana
Current Conditions -  °F | °C
As of 11:55 AM on Saturday 22 Nov 2014 (Local Time) from KGGP Reporting Station
Overcast Overcast  
Wind Chill: 37°   Ceiling: 3000
Heat Index: 43°   Visibility: 10mi
Dew Point: 39°   Wind: 12mph
Humidity: 87%   Direction: 200°SSW
Pressure: 30.07"   Gusts: NA
Location:  40.86°N, 86.5°W
Report Text: KGGP 221655Z AUTO 20010KT 10SM OVC030 06/04 A3007 RMK AO2
Loading
Personal Weather Stations






























Interactive Weather Map New forecast layout! Learn more

10-Day Weather Forecast

Advertisements
Track Severe Weather on mobile